Time;durP1;ratioP1;P1;durP2;ratioP2;P2;SDS_P1;SDS_P2;PMS_P1;PMS_P2;Temp;Humidity;BMP_temperature;BMP_pressure;BME280_temperature;BME280_humidity;BME280_pressure;Samples;Min_cycle;Max_cycle;Signal;HPM_P1;HPM_P2
2022/03/06 00:01:13;;;;;;;25.35;14.13;;;1.30;50.10;;;;;;5014941;28;20083;-76
2022/03/06 00:03:38;;;;;;;29.45;15.00;;;1.20;50.10;;;;;;5014961;28;20092;-76
2022/03/06 00:06:04;;;;;;;25.88;12.55;;;1.30;50.20;;;;;;5014956;28;20470;-75
2022/03/06 00:08:29;;;;;;;26.27;13.13;;;1.40;50.10;;;;;;5014886;28;20088;-78
2022/03/06 00:10:57;;;;;;;26.95;13.50;;;1.30;49.90;;;;;;5014797;28;20037;-77
2022/03/06 00:13:23;;;;;;;25.23;13.85;;;1.40;49.70;;;;;;5014806;28;20054;-76
2022/03/06 00:15:48;;;;;;;26.88;12.85;;;1.40;49.70;;;;;;5014756;28;20037;-76
2022/03/06 00:18:14;;;;;;;26.60;13.68;;;1.40;49.70;;;;;;4997078;28;20033;-75
2022/03/06 00:20:42;;;;;;;25.85;13.40;;;1.40;49.60;;;;;;5014774;28;20022;-75
2022/03/06 00:23:07;;;;;;;30.15;14.00;;;1.30;49.90;;;;;;5014513;28;20026;-76
2022/03/06 00:25:33;;;;;;;26.92;13.02;;;1.20;50.20;;;;;;5014460;28;20107;-76
2022/03/06 00:27:59;;;;;;;27.85;14.20;;;1.20;50.40;;;;;;5014501;28;20022;-76
2022/03/06 00:30:24;;;;;;;29.25;14.23;;;1.20;50.50;;;;;;5014523;28;20028;-76
2022/03/06 00:32:50;;;;;;;24.38;13.60;;;1.10;50.70;;;;;;5014580;28;20049;-76
2022/03/06 00:35:15;;;;;;;26.45;14.20;;;1.10;50.90;;;;;;5014394;28;20026;-76
2022/03/06 00:37:41;;;;;;;29.33;14.52;;;1.10;50.80;;;;;;5014374;28;20026;-76
2022/03/06 00:40:08;;;;;;;30.85;15.18;;;1.00;50.90;;;;;;5014393;28;20065;-75
2022/03/06 00:42:34;;;;;;;32.85;14.57;;;1.00;51.10;;;;;;5014308;28;20037;-75
2022/03/06 00:44:59;;;;;;;28.92;14.85;;;0.90;51.40;;;;;;5013923;28;20038;-76
2022/03/06 00:47:25;;;;;;;34.03;16.33;;;1.00;51.50;;;;;;5014158;28;20031;-76
2022/03/06 00:49:51;;;;;;;31.55;15.82;;;0.90;51.50;;;;;;5014061;28;20040;-75
2022/03/06 00:52:17;;;;;;;31.58;15.57;;;1.00;51.50;;;;;;5013823;28;20029;-75
2022/03/06 00:54:43;;;;;;;34.63;15.45;;;1.00;52.20;;;;;;5014104;28;20037;-75
2022/03/06 00:57:08;;;;;;;28.30;15.10;;;1.00;51.50;;;;;;5014070;28;20022;-76
2022/03/06 00:59:35;;;;;;;26.52;14.48;;;0.90;51.40;;;;;;5013911;28;20119;-75
2022/03/06 01:02:03;;;;;;;27.73;14.63;;;0.90;51.50;;;;;;5013883;28;20105;-75
2022/03/06 01:04:28;;;;;;;33.80;15.45;;;0.90;51.70;;;;;;5013703;28;20389;-76
2022/03/06 01:06:54;;;;;;;30.45;14.73;;;0.90;51.70;;;;;;5014020;28;20033;-77
2022/03/06 01:09:19;;;;;;;30.35;14.57;;;0.90;51.90;;;;;;5013593;28;20034;-75
2022/03/06 01:11:45;;;;;;;28.35;13.55;;;1.00;51.90;;;;;;5013656;28;20032;-76
2022/03/06 01:14:11;;;;;;;29.30;14.43;;;1.00;51.80;;;;;;5013803;28;20025;-76
2022/03/06 01:16:36;;;;;;;32.65;14.45;;;0.90;51.60;;;;;;5014062;28;20033;-75
2022/03/06 01:19:02;;;;;;;27.23;13.68;;;1.00;51.50;;;;;;5013627;28;20473;-76
2022/03/06 01:21:28;;;;;;;29.15;13.65;;;0.90;51.50;;;;;;4996061;28;20022;-76
2022/03/06 01:23:54;;;;;;;30.00;14.85;;;0.90;51.60;;;;;;5013648;28;20079;-76
2022/03/06 01:26:19;;;;;;;28.52;13.70;;;0.90;51.70;;;;;;5013462;28;20018;-76
2022/03/06 01:28:45;;;;;;;28.83;14.23;;;0.80;52.00;;;;;;5013158;28;20107;-75
2022/03/06 01:31:11;;;;;;;33.30;16.52;;;0.70;52.20;;;;;;5013331;28;20033;-76
2022/03/06 01:33:37;;;;;;;30.08;15.48;;;0.80;52.20;;;;;;5013169;28;20049;-76
2022/03/06 01:36:03;;;;;;;31.58;14.30;;;0.80;52.30;;;;;;5013128;28;20028;-75
2022/03/06 01:38:29;;;;;;;30.70;15.63;;;0.80;52.20;;;;;;5013175;28;20116;-75
2022/03/06 01:40:55;;;;;;;29.63;15.38;;;0.80;52.30;;;;;;5013159;28;20060;-76
2022/03/06 01:43:21;;;;;;;33.38;16.25;;;0.80;52.30;;;;;;5012838;28;20054;-76
2022/03/06 01:45:46;;;;;;;31.55;15.60;;;0.80;52.30;;;;;;4992103;28;20086;-76
2022/03/06 01:48:12;;;;;;;31.67;15.77;;;0.80;52.40;;;;;;4993345;28;20033;-76
2022/03/06 01:50:38;;;;;;;32.70;15.45;;;0.80;52.40;;;;;;4993446;28;20034;-76
2022/03/06 01:53:07;;;;;;;27.45;14.27;;;0.70;52.50;;;;;;4993485;28;20106;-76
2022/03/06 01:55:33;;;;;;;31.48;15.93;;;0.70;52.60;;;;;;4993383;28;20503;-75
2022/03/06 01:58:02;;;;;;;29.77;14.85;;;0.70;52.70;;;;;;4993385;28;20093;-75
2022/03/06 02:00:32;;;;;;;27.70;13.98;;;0.50;52.80;;;;;;4993506;28;20095;-75
2022/03/06 02:02:58;;;;;;;27.77;13.65;;;0.40;52.90;;;;;;4993519;28;20026;-75
2022/03/06 02:05:23;;;;;;;30.58;13.60;;;0.40;53.20;;;;;;4997317;28;20437;-75
2022/03/06 02:07:49;;;;;;;26.38;13.88;;;0.40;53.40;;;;;;4995880;28;20027;-75
2022/03/06 02:10:15;;;;;;;24.50;12.65;;;0.40;53.60;;;;;;4997308;28;20026;-75
2022/03/06 02:12:42;;;;;;;28.48;14.02;;;0.40;53.70;;;;;;4997332;28;20026;-75
2022/03/06 02:15:10;;;;;;;26.80;12.88;;;0.40;53.80;;;;;;4997377;28;20427;-76
2022/03/06 02:17:37;;;;;;;29.98;14.50;;;0.40;53.70;;;;;;5000794;28;20110;-75
2022/03/06 02:20:03;;;;;;;31.77;14.73;;;0.50;53.80;;;;;;5017897;28;20017;-76
2022/03/06 02:22:31;;;;;;;25.50;13.45;;;0.50;53.70;;;;;;5022094;28;20019;-75
2022/03/06 02:24:58;;;;;;;30.42;14.77;;;0.40;53.50;;;;;;5022238;28;20090;-75
2022/03/06 02:27:25;;;;;;;29.48;13.65;;;0.30;53.70;;;;;;5022102;28;20066;-75
2022/03/06 02:29:51;;;;;;;28.83;13.95;;;0.30;53.80;;;;;;5021003;28;20045;-76
2022/03/06 02:32:20;;;;;;;27.42;13.85;;;0.40;54.20;;;;;;5019718;28;20026;-75
2022/03/06 02:34:48;;;;;;;23.35;12.55;;;0.40;54.10;;;;;;5011606;28;20057;-75
2022/03/06 02:37:19;;;;;;;26.88;12.68;;;0.40;53.90;;;;;;5000972;28;20049;-76
2022/03/06 02:39:45;;;;;;;30.13;13.85;;;0.40;53.80;;;;;;4998090;28;20085;-75
2022/03/06 02:42:23;;;;;;;26.38;13.60;;;0.30;53.80;;;;;;4998473;28;20038;-75
2022/03/06 02:44:48;;;;;;;30.95;13.77;;;0.30;53.90;;;;;;5008572;28;20049;-75
2022/03/06 02:47:14;;;;;;;29.30;13.60;;;0.30;54.10;;;;;;5017806;28;20053;-75
2022/03/06 02:49:39;;;;;;;30.85;13.80;;;0.30;54.20;;;;;;5016873;28;20041;-76
2022/03/06 02:52:08;;;;;;;31.55;14.15;;;0.20;54.20;;;;;;5014962;28;20025;-76
2022/03/06 02:54:34;;;;;;;30.92;15.02;;;0.10;54.70;;;;;;5016118;28;20022;-76
2022/03/06 02:56:59;;;;;;;28.00;14.63;;;0.10;54.80;;;;;;5016510;28;20053;-75
2022/03/06 02:59:25;;;;;;;36.42;17.10;;;0.10;54.90;;;;;;5016104;28;20470;-75
2022/03/06 03:01:51;;;;;;;38.28;17.45;;;0.00;55.00;;;;;;5016147;28;20025;-76
2022/03/06 03:04:16;;;;;;;36.75;16.23;;;-0.10;55.30;;;;;;5016128;28;20070;-76
2022/03/06 03:06:42;;;;;;;32.35;15.70;;;-0.10;55.40;;;;;;5016123;28;20033;-76
2022/03/06 03:09:08;;;;;;;33.15;16.10;;;-0.10;55.60;;;;;;5015939;28;20095;-76
2022/03/06 03:11:34;;;;;;;35.13;16.92;;;-0.10;55.50;;;;;;5015841;28;20097;-76
2022/03/06 03:14:01;;;;;;;29.58;15.95;;;-0.10;55.60;;;;;;5015763;28;20026;-77
2022/03/06 03:16:27;;;;;;;29.48;14.93;;;-0.20;55.60;;;;;;5015908;28;20101;-75
2022/03/06 03:18:53;;;;;;;29.67;14.35;;;-0.20;55.70;;;;;;5015943;28;20026;-76
2022/03/06 03:21:18;;;;;;;29.85;14.00;;;-0.20;56.10;;;;;;5015787;28;20026;-75
2022/03/06 03:23:44;;;;;;;26.92;14.32;;;-0.20;56.60;;;;;;5015707;28;20026;-76
2022/03/06 03:26:10;;;;;;;26.70;12.85;;;-0.20;56.50;;;;;;5015556;28;20026;-76
2022/03/06 03:28:36;;;;;;;31.30;14.50;;;-0.20;56.60;;;;;;5015453;28;20044;-76
2022/03/06 03:31:02;;;;;;;31.00;14.20;;;-0.30;56.70;;;;;;5015564;28;20034;-76
2022/03/06 03:33:27;;;;;;;28.35;13.35;;;-0.40;56.80;;;;;;5015721;28;20033;-75
2022/03/06 03:35:53;;;;;;;23.27;12.73;;;-0.30;57.00;;;;;;5015546;28;20097;-76
2022/03/06 03:38:18;;;;;;;29.42;14.30;;;-0.30;57.00;;;;;;5015406;28;20049;-76
2022/03/06 03:40:44;;;;;;;26.98;14.35;;;-0.40;57.10;;;;;;5015208;28;20438;-75
2022/03/06 03:43:09;;;;;;;26.80;13.50;;;-0.40;57.10;;;;;;5015337;28;20417;-76
2022/03/06 03:45:35;;;;;;;28.08;14.65;;;-0.40;57.10;;;;;;5014943;28;20409;-76
2022/03/06 03:48:01;;;;;;;29.45;14.35;;;-0.40;57.20;;;;;;5015104;28;20385;-76
2022/03/06 03:50:26;;;;;;;29.90;14.82;;;-0.40;57.10;;;;;;5015039;28;20025;-75
2022/03/06 03:52:52;;;;;;;29.08;13.55;;;-0.40;57.10;;;;;;5015072;28;20026;-76
2022/03/06 03:55:18;;;;;;;27.88;13.10;;;-0.50;57.40;;;;;;5015062;28;20087;-76
2022/03/06 03:57:44;;;;;;;27.83;14.02;;;-0.60;57.60;;;;;;5014918;28;20041;-75
2022/03/06 04:00:10;;;;;;;32.83;13.82;;;-0.60;57.90;;;;;;5014958;28;20044;-75
2022/03/06 04:02:36;;;;;;;26.60;13.60;;;-0.60;58.20;;;;;;4997248;28;20109;-76
2022/03/06 04:05:01;;;;;;;26.63;13.93;;;-0.70;58.20;;;;;;5014843;28;20144;-76
2022/03/06 04:07:27;;;;;;;26.23;13.50;;;-0.70;58.40;;;;;;5014814;28;20111;-76
2022/03/06 04:09:52;;;;;;;30.70;15.00;;;-0.70;58.00;;;;;;5014960;28;20040;-76
2022/03/06 04:12:18;;;;;;;33.92;15.20;;;-0.80;58.40;;;;;;5014707;28;20565;-76
2022/03/06 04:14:44;;;;;;;27.73;13.52;;;-0.90;59.00;;;;;;5014617;28;20065;-75
2022/03/06 04:17:09;;;;;;;31.23;14.40;;;-1.00;59.00;;;;;;5014741;28;20026;-76
2022/03/06 04:19:35;;;;;;;32.10;15.02;;;-1.00;59.70;;;;;;5013286;28;20033;-76
2022/03/06 04:22:00;;;;;;;29.95;14.45;;;-1.00;60.20;;;;;;5014866;28;20373;-76
2022/03/06 04:24:26;;;;;;;31.30;13.63;;;-0.90;60.40;;;;;;5014602;28;20034;-77
2022/03/06 04:26:52;;;;;;;29.42;13.70;;;-1.00;60.10;;;;;;5014130;28;20033;-76
2022/03/06 04:29:18;;;;;;;31.27;15.50;;;-1.00;60.00;;;;;;5014359;28;20034;-77
2022/03/06 04:31:43;;;;;;;28.35;13.77;;;-1.00;60.20;;;;;;5014307;28;20097;-77
2022/03/06 04:34:09;;;;;;;29.58;13.95;;;-1.20;60.60;;;;;;5014359;28;20037;-76
2022/03/06 04:36:36;;;;;;;36.83;14.15;;;-1.20;61.20;;;;;;5012859;28;20029;-76
2022/03/06 04:39:02;;;;;;;29.05;13.45;;;-1.30;61.70;;;;;;5014243;28;20109;-76
2022/03/06 04:41:28;;;;;;;29.75;14.25;;;-1.30;61.80;;;;;;5014168;28;20025;-77
2022/03/06 04:43:53;;;;;;;31.70;14.63;;;-1.30;61.70;;;;;;5014007;28;20540;-77
2022/03/06 04:46:19;;;;;;;31.52;14.63;;;-1.30;61.50;;;;;;5014286;28;20029;-76
2022/03/06 04:48:45;;;;;;;25.05;12.98;;;-1.30;61.90;;;;;;4996391;28;20049;-77
2022/03/06 04:51:10;;;;;;;35.30;14.82;;;-1.20;61.80;;;;;;5013812;28;20474;-77
2022/03/06 04:53:39;;;;;;;27.75;13.13;;;-1.30;61.70;;;;;;5013876;28;20510;-76
2022/03/06 04:56:05;;;;;;;31.45;14.93;;;-1.30;61.60;;;;;;5014041;28;20022;-77
2022/03/06 04:58:31;;;;;;;26.70;13.82;;;-1.30;61.50;;;;;;5013858;28;20360;-76
2022/03/06 05:00:57;;;;;;;28.92;13.82;;;-1.30;61.40;;;;;;5013818;28;20039;-76
2022/03/06 05:03:22;;;;;;;31.85;14.70;;;-1.30;62.10;;;;;;5013940;28;20097;-76
2022/03/06 05:05:49;;;;;;;28.70;14.55;;;-1.30;61.60;;;;;;5014531;28;20036;-77
2022/03/06 05:08:15;;;;;;;31.08;14.07;;;-1.30;61.50;;;;;;5014096;28;20030;-77
2022/03/06 05:10:40;;;;;;;29.80;15.18;;;-1.30;61.40;;;;;;5013901;28;20026;-77
2022/03/06 05:13:06;;;;;;;31.60;14.73;;;-1.30;61.30;;;;;;5014136;28;20474;-76
2022/03/06 05:15:32;;;;;;;29.20;13.70;;;-1.30;61.10;;;;;;5013616;28;20026;-76
2022/03/06 05:17:58;;;;;;;32.45;15.77;;;-1.20;61.00;;;;;;4996132;28;20033;-76
2022/03/06 05:20:24;;;;;;;32.85;14.07;;;-1.20;61.00;;;;;;5013633;28;20390;-76
2022/03/06 05:22:49;;;;;;;28.30;13.00;;;-1.20;60.70;;;;;;5013569;28;20076;-77
2022/03/06 05:25:15;;;;;;;32.63;15.38;;;-1.10;60.70;;;;;;5013624;28;20540;-76
2022/03/06 05:27:41;;;;;;;30.55;14.35;;;-1.10;60.70;;;;;;5013538;28;20026;-76
2022/03/06 05:30:09;;;;;;;32.42;14.85;;;-1.10;60.80;;;;;;5013494;28;20038;-76
2022/03/06 05:32:34;;;;;;;30.85;14.93;;;-1.10;61.00;;;;;;5013322;28;20151;-77
2022/03/06 05:35:00;;;;;;;26.40;13.23;;;-1.00;60.70;;;;;;5013591;28;20449;-77
2022/03/06 05:37:25;;;;;;;32.90;15.63;;;-1.00;60.50;;;;;;5012746;28;20443;-77
2022/03/06 05:39:51;;;;;;;28.90;14.40;;;-1.00;60.50;;;;;;5013156;28;20026;-77
2022/03/06 05:42:17;;;;;;;33.53;15.85;;;-1.00;60.90;;;;;;5013718;28;20037;-77
2022/03/06 05:44:43;;;;;;;33.10;15.13;;;-1.00;61.00;;;;;;5013463;28;20064;-77
2022/03/06 05:47:08;;;;;;;30.70;16.15;;;-1.00;62.00;;;;;;5013596;28;20022;-77
2022/03/06 05:49:34;;;;;;;28.00;14.10;;;-0.90;62.20;;;;;;5013715;28;20034;-78
2022/03/06 05:52:02;;;;;;;34.53;16.27;;;-0.90;62.10;;;;;;4997403;28;20041;-77
2022/03/06 05:54:28;;;;;;;32.50;15.98;;;-1.00;63.10;;;;;;5013663;28;20026;-76
2022/03/06 05:56:54;;;;;;;28.70;15.00;;;-0.90;63.20;;;;;;4996300;28;20430;-76
2022/03/06 05:59:19;;;;;;;32.35;15.55;;;-0.90;63.10;;;;;;5018897;28;20033;-76
2022/03/06 06:01:45;;;;;;;35.53;16.80;;;-0.80;63.50;;;;;;5019034;28;20030;-76
2022/03/06 06:04:12;;;;;;;33.05;15.18;;;-0.80;63.30;;;;;;5013092;28;20032;-77
2022/03/06 06:06:38;;;;;;;37.60;17.55;;;-0.70;63.40;;;;;;5013176;28;20033;-77
2022/03/06 06:09:04;;;;;;;43.33;20.88;;;-0.60;63.70;;;;;;5013115;28;20034;-76
2022/03/06 06:11:30;;;;;;;44.92;20.30;;;-0.60;64.90;;;;;;5012991;28;20045;-76
2022/03/06 06:13:55;;;;;;;35.22;17.92;;;-0.60;66.60;;;;;;5012990;28;20061;-76
2022/03/06 06:16:21;;;;;;;40.97;20.02;;;-0.50;65.90;;;;;;5011721;28;20026;-76
2022/03/06 06:18:46;;;;;;;37.03;18.38;;;-0.40;66.00;;;;;;5013064;28;20092;-76
2022/03/06 06:21:13;;;;;;;39.80;19.35;;;-0.30;66.00;;;;;;5013078;28;20017;-76
2022/03/06 06:23:39;;;;;;;45.38;19.95;;;-0.10;65.80;;;;;;5013039;28;20025;-76
2022/03/06 06:26:05;;;;;;;46.17;21.08;;;-0.10;65.60;;;;;;5013141;28;20061;-75
2022/03/06 06:28:31;;;;;;;41.45;19.13;;;0.00;65.90;;;;;;5012592;28;20069;-76
2022/03/06 06:30:56;;;;;;;47.00;21.55;;;0.10;65.50;;;;;;5012855;28;20037;-76
2022/03/06 06:33:22;;;;;;;39.15;19.33;;;0.10;65.40;;;;;;5012853;28;20026;-76
2022/03/06 06:35:47;;;;;;;40.22;19.92;;;0.20;65.20;;;;;;5012638;28;20030;-75
2022/03/06 06:38:13;;;;;;;37.60;19.80;;;0.20;65.20;;;;;;5012706;28;20049;-76
2022/03/06 06:40:38;;;;;;;38.50;19.75;;;0.30;65.00;;;;;;5012899;28;20065;-75
2022/03/06 06:43:04;;;;;;;43.45;20.70;;;0.30;64.90;;;;;;5012662;28;20026;-75
2022/03/06 06:45:30;;;;;;;37.58;18.95;;;0.40;64.70;;;;;;5012509;28;20099;-76
2022/03/06 06:47:56;;;;;;;42.28;20.10;;;0.40;64.60;;;;;;5012657;28;20022;-76
2022/03/06 06:50:22;;;;;;;38.30;19.63;;;0.40;64.50;;;;;;5014949;28;20505;-76
2022/03/06 06:52:47;;;;;;;32.20;18.08;;;0.50;64.30;;;;;;5016319;28;20588;-76
2022/03/06 06:55:13;;;;;;;37.20;19.67;;;0.60;64.00;;;;;;5016402;28;20030;-76
2022/03/06 06:57:38;;;;;;;39.65;19.70;;;0.60;63.80;;;;;;5016253;28;20021;-76
2022/03/06 07:00:05;;;;;;;36.80;18.60;;;0.60;63.50;;;;;;5017248;28;20104;-76
2022/03/06 07:02:31;;;;;;;41.20;20.30;;;0.70;63.10;;;;;;5017509;28;20026;-77
2022/03/06 07:04:57;;;;;;;41.05;20.63;;;0.70;62.80;;;;;;5016580;28;20026;-77
2022/03/06 07:07:24;;;;;;;41.83;20.75;;;0.70;62.80;;;;;;5016607;28;20028;-78
2022/03/06 07:09:49;;;;;;;39.10;20.42;;;0.80;62.60;;;;;;5016062;28;20037;-77
2022/03/06 07:12:15;;;;;;;37.60;19.35;;;0.80;62.80;;;;;;5016117;28;20030;-77
2022/03/06 07:14:40;;;;;;;33.25;18.10;;;0.90;62.70;;;;;;5015944;28;20096;-77
2022/03/06 07:17:06;;;;;;;36.40;18.90;;;1.00;62.00;;;;;;5016172;28;20506;-76
2022/03/06 07:19:32;;;;;;;37.85;18.35;;;0.90;61.50;;;;;;5015221;28;20065;-77
2022/03/06 07:21:59;;;;;;;31.23;17.35;;;0.90;61.50;;;;;;5015957;28;20222;-75
2022/03/06 07:24:25;;;;;;;35.25;18.95;;;1.00;61.80;;;;;;5016277;28;20475;-76
2022/03/06 07:26:51;;;;;;;36.90;19.63;;;1.10;61.50;;;;;;5015893;28;20060;-76
2022/03/06 07:29:16;;;;;;;36.63;18.63;;;1.20;61.10;;;;;;5015711;28;20065;-75
2022/03/06 07:31:42;;;;;;;32.10;17.75;;;1.30;60.60;;;;;;5015681;28;20062;-75
2022/03/06 07:34:07;;;;;;;32.63;16.85;;;1.40;60.00;;;;;;5015446;28;20018;-76
2022/03/06 07:36:33;;;;;;;38.45;19.38;;;1.40;59.50;;;;;;5014388;28;20022;-76
2022/03/06 07:38:58;;;;;;;36.05;19.13;;;1.40;59.10;;;;;;5015475;28;20481;-75
2022/03/06 07:41:24;;;;;;;38.63;18.75;;;1.40;59.00;;;;;;5015408;28;20029;-74
2022/03/06 07:43:50;;;;;;;34.78;17.85;;;1.50;58.90;;;;;;5015324;28;20069;-75
2022/03/06 07:46:15;;;;;;;34.63;17.83;;;1.50;58.80;;;;;;5015464;28;20038;-74
2022/03/06 07:48:41;;;;;;;36.47;18.20;;;1.50;58.60;;;;;;5015173;28;20041;-74
2022/03/06 07:51:06;;;;;;;37.55;18.77;;;1.60;58.50;;;;;;5015047;28;20398;-73
2022/03/06 07:53:32;;;;;;;33.78;17.77;;;1.60;58.40;;;;;;5014941;28;20033;-75
2022/03/06 07:55:58;;;;;;;32.75;18.00;;;1.70;58.50;;;;;;5015092;28;20033;-75
2022/03/06 07:58:23;;;;;;;35.38;17.65;;;1.80;58.30;;;;;;5014973;28;20030;-75
2022/03/06 08:00:49;;;;;;;40.78;22.00;;;1.90;57.70;;;;;;5014138;28;20060;-76
2022/03/06 08:03:15;;;;;;;33.38;16.95;;;2.00;57.40;;;;;;5014891;28;20389;-76
2022/03/06 08:05:41;;;;;;;34.03;18.73;;;2.00;57.10;;;;;;5014712;28;20351;-75
2022/03/06 08:08:07;;;;;;;34.45;18.67;;;2.00;56.40;;;;;;5014905;28;20033;-75
2022/03/06 08:10:32;;;;;;;31.95;16.75;;;2.00;56.20;;;;;;5014909;28;20026;-76
2022/03/06 08:12:58;;;;;;;32.00;16.83;;;1.90;56.40;;;;;;5014934;28;20030;-75
2022/03/06 08:15:23;;;;;;;32.05;17.67;;;2.00;57.00;;;;;;5014822;28;20022;-76
2022/03/06 08:17:49;;;;;;;31.20;17.75;;;2.00;57.00;;;;;;4997126;28;20022;-77
2022/03/06 08:20:14;;;;;;;30.75;16.23;;;2.00;56.10;;;;;;5014889;28;20029;-75
2022/03/06 08:22:40;;;;;;;31.63;15.60;;;2.10;57.60;;;;;;5014693;28;20026;-78
2022/03/06 08:25:07;;;;;;;30.08;15.85;;;2.60;68.10;;;;;;5014636;28;20481;-77
2022/03/06 08:27:33;;;;;;;29.30;16.05;;;3.00;65.10;;;;;;5014871;28;20029;-76
2022/03/06 08:30:00;;;;;;;29.27;16.65;;;3.40;60.80;;;;;;5014575;28;20030;-76
2022/03/06 08:32:26;;;;;;;30.33;16.30;;;4.00;58.20;;;;;;5014522;28;20144;-76
2022/03/06 08:34:51;;;;;;;34.25;17.05;;;4.40;53.40;;;;;;5014579;28;20109;-75
2022/03/06 08:37:18;;;;;;;36.80;16.95;;;4.60;50.70;;;;;;5014675;28;20108;-74
2022/03/06 08:39:46;;;;;;;32.92;17.13;;;4.90;52.30;;;;;;5014478;28;20037;-73
2022/03/06 08:42:11;;;;;;;33.72;16.70;;;5.60;49.90;;;;;;5014426;28;20025;-73
2022/03/06 08:44:37;;;;;;;28.67;17.20;;;6.10;46.40;;;;;;5014221;28;20062;-74
2022/03/06 08:47:03;;;;;;;30.33;16.83;;;6.40;44.60;;;;;;5014530;28;20018;-74
2022/03/06 08:49:29;;;;;;;29.92;16.60;;;6.60;42.80;;;;;;5014893;28;20087;-75
2022/03/06 08:51:55;;;;;;;24.80;14.65;;;6.90;42.20;;;;;;5014133;28;20114;-72
2022/03/06 08:54:21;;;;;;;24.90;15.15;;;7.00;41.50;;;;;;5014071;28;20220;-74
2022/03/06 08:56:47;;;;;;;27.00;15.40;;;7.20;41.10;;;;;;5014166;28;20021;-79
2022/03/06 08:59:13;;;;;;;25.98;15.75;;;7.40;40.60;;;;;;5014007;28;20021;-77
2022/03/06 09:01:41;;;;;;;24.70;15.60;;;7.50;40.10;;;;;;5013870;28;20026;-77
2022/03/06 09:04:07;;;;;;;26.95;15.88;;;7.10;38.10;;;;;;5013816;28;20109;-76
2022/03/06 09:06:32;;;;;;;25.33;16.10;;;6.30;38.60;;;;;;5013763;28;20049;-77
2022/03/06 09:08:58;;;;;;;24.65;14.77;;;5.70;40.00;;;;;;5013523;28;20034;-77
2022/03/06 09:11:24;;;;;;;31.02;17.02;;;5.40;41.80;;;;;;5013716;28;20018;-77
2022/03/06 09:13:49;;;;;;;33.00;17.58;;;5.20;43.00;;;;;;4995899;28;20522;-74
2022/03/06 09:16:15;;;;;;;30.80;17.65;;;5.10;43.70;;;;;;5013813;28;20351;-77
2022/03/06 09:18:40;;;;;;;30.63;16.40;;;5.00;44.10;;;;;;5013774;28;20079;-77
2022/03/06 09:21:06;;;;;;;29.88;16.60;;;5.10;44.10;;;;;;5013691;28;20026;-77
2022/03/06 09:23:32;;;;;;;27.70;16.55;;;5.10;44.10;;;;;;5013566;28;20025;-76
2022/03/06 09:25:57;;;;;;;27.25;15.50;;;5.00;43.90;;;;;;5013625;28;20030;-76
2022/03/06 09:28:23;;;;;;;25.70;15.60;;;5.20;43.20;;;;;;5013537;28;20053;-76
2022/03/06 09:30:49;;;;;;;27.40;15.63;;;5.30;42.60;;;;;;5013354;28;20474;-76
2022/03/06 09:33:14;;;;;;;26.30;15.57;;;5.20;41.90;;;;;;5013334;28;20025;-76
2022/03/06 09:35:40;;;;;;;27.58;14.43;;;5.20;42.20;;;;;;5013565;28;20088;-78
2022/03/06 09:38:06;;;;;;;24.50;14.98;;;5.00;42.40;;;;;;5013927;28;20034;-76
2022/03/06 09:40:33;;;;;;;26.17;14.63;;;4.80;42.60;;;;;;5013249;28;20025;-76
2022/03/06 09:42:58;;;;;;;25.83;14.65;;;4.90;43.00;;;;;;5013306;28;20034;-76
2022/03/06 09:45:28;;;;;;;26.00;15.07;;;5.00;43.00;;;;;;4995447;28;20092;-77
2022/03/06 09:47:58;;;;;;;30.55;16.27;;;5.10;43.20;;;;;;5013244;28;20034;-78
2022/03/06 09:50:24;;;;;;;25.92;14.70;;;5.20;42.70;;;;;;5012946;28;20434;-78
2022/03/06 09:52:49;;;;;;;27.10;15.38;;;5.50;42.00;;;;;;5013208;28;20042;-76
2022/03/06 09:55:15;;;;;;;24.13;14.43;;;5.80;41.50;;;;;;5013058;28;20116;-77
2022/03/06 09:57:41;;;;;;;24.02;14.75;;;5.90;40.90;;;;;;5013229;28;20026;-78
2022/03/06 10:00:09;;;;;;;24.55;15.32;;;6.10;40.40;;;;;;5013049;28;20025;-75
2022/03/06 10:02:57;;;;;;;25.35;14.30;;;6.20;39.70;;;;;;5012864;28;20033;-75
2022/03/06 10:05:38;;;;;;;25.17;14.13;;;6.10;39.30;;;;;;5012713;28;20022;-75
2022/03/06 10:08:26;;;;;;;23.13;13.68;;;6.10;39.00;;;;;;5012967;28;20045;-76
2022/03/06 10:10:57;;;;;;;23.25;13.63;;;6.30;38.50;;;;;;5013328;28;20482;-76
2022/03/06 10:13:26;;;;;;;25.35;14.07;;;6.20;38.00;;;;;;5013243;28;20026;-76
2022/03/06 10:16:01;;;;;;;26.58;15.70;;;6.20;38.20;;;;;;4995380;28;20034;-76
2022/03/06 10:18:51;;;;;;;25.95;14.90;;;6.40;38.20;;;;;;5013033;28;20437;-76
2022/03/06 10:21:20;;;;;;;25.33;14.68;;;6.50;38.20;;;;;;5012380;28;20038;-77
2022/03/06 10:23:48;;;;;;;21.80;13.90;;;6.70;37.90;;;;;;5012964;28;20433;-76
2022/03/06 10:26:19;;;;;;;28.48;15.25;;;7.10;37.90;;;;;;5016891;28;20326;-76
2022/03/06 10:28:57;;;;;;;25.48;15.38;;;7.50;37.30;;;;;;5016767;28;20034;-76
2022/03/06 10:31:24;;;;;;;26.10;15.07;;;7.80;35.60;;;;;;5020369;28;20079;-76
2022/03/06 10:33:55;;;;;;;21.40;13.73;;;8.00;34.80;;;;;;5018028;28;20032;-76
2022/03/06 10:36:29;;;;;;;23.75;12.77;;;7.90;33.30;;;;;;5018705;28;20114;-76
2022/03/06 10:38:55;;;;;;;23.77;13.25;;;7.60;32.80;;;;;;5018080;28;20095;-76
2022/03/06 10:41:21;;;;;;;25.70;13.15;;;7.20;32.60;;;;;;5019209;28;20486;-77
2022/03/06 10:43:48;;;;;;;19.35;11.85;;;6.80;33.20;;;;;;5005029;28;20030;-77
2022/03/06 10:46:18;;;;;;;21.45;11.40;;;6.40;33.90;;;;;;5017853;28;20103;-77
2022/03/06 10:48:58;;;;;;;18.23;10.93;;;6.60;34.20;;;;;;5017693;28;20489;-77
2022/03/06 10:51:25;;;;;;;21.42;12.15;;;7.10;34.10;;;;;;5020210;28;20022;-78
2022/03/06 10:53:57;;;;;;;20.90;11.98;;;7.30;33.20;;;;;;5022849;28;20011;-77
2022/03/06 10:56:23;;;;;;;19.60;11.90;;;7.70;32.90;;;;;;5041503;28;20045;-78
2022/03/06 10:58:49;;;;;;;17.08;10.60;;;8.30;31.90;;;;;;5040475;28;20010;-77
2022/03/06 11:01:15;;;;;;;14.93;9.95;;;8.40;30.10;;;;;;5039936;28;20106;-79
2022/03/06 11:03:41;;;;;;;19.70;10.45;;;8.50;29.80;;;;;;5029547;28;20053;-77
2022/03/06 11:06:09;;;;;;;16.40;10.10;;;8.90;29.40;;;;;;5020778;28;20053;-76
2022/03/06 11:08:36;;;;;;;17.10;10.75;;;8.90;27.90;;;;;;5018920;28;20430;-77
2022/03/06 11:11:05;;;;;;;18.83;11.30;;;8.90;27.00;;;;;;5019387;28;20462;-77
2022/03/06 11:13:30;;;;;;;18.77;10.40;;;9.10;26.80;;;;;;5019127;28;20026;-76
2022/03/06 11:15:57;;;;;;;18.73;10.75;;;8.50;26.50;;;;;;5018826;28;20024;-78
2022/03/06 11:18:27;;;;;;;16.38;10.55;;;8.70;26.90;;;;;;5016340;28;20022;-75
2022/03/06 11:20:54;;;;;;;17.20;10.55;;;9.20;27.90;;;;;;5016109;28;20057;-74
2022/03/06 11:23:33;;;;;;;21.33;12.00;;;9.70;26.90;;;;;;5016181;28;20386;-74
2022/03/06 11:26:13;;;;;;;17.20;10.80;;;10.00;25.80;;;;;;5016008;28;20014;-76
2022/03/06 11:28:58;;;;;;;18.83;10.65;;;10.20;24.80;;;;;;5015950;28;20030;-75
2022/03/06 11:31:24;;;;;;;17.88;10.95;;;10.10;24.30;;;;;;5015927;28;20018;-72
2022/03/06 11:33:57;;;;;;;19.92;11.05;;;10.40;24.70;;;;;;5015790;28;20033;-71
2022/03/06 11:36:27;;;;;;;17.20;10.82;;;10.80;24.50;;;;;;5015788;28;20023;-75
2022/03/06 11:38:54;;;;;;;21.48;11.48;;;11.40;25.50;;;;;;5015762;28;20029;-73
2022/03/06 11:41:20;;;;;;;17.40;10.95;;;11.60;24.50;;;;;;5015574;28;20497;-77
2022/03/06 11:43:48;;;;;;;18.20;10.73;;;12.10;24.10;;;;;;5015533;28;20108;-74
2022/03/06 11:46:24;;;;;;;18.02;11.70;;;12.30;22.60;;;;;;5015644;28;20030;-75
2022/03/06 11:48:50;;;;;;;17.13;11.13;;;12.60;22.10;;;;;;5015342;28;20061;-72
2022/03/06 11:51:22;;;;;;;19.02;11.57;;;12.40;20.60;;;;;;5015499;28;20034;-75
2022/03/06 11:54:15;;;;;;;17.00;11.38;;;12.80;20.90;;;;;;5015707;28;20034;-75
2022/03/06 11:56:46;;;;;;;15.98;10.48;;;12.90;20.80;;;;;;4997775;28;20105;-75
2022/03/06 11:59:19;;;;;;;17.15;11.00;;;13.00;20.60;;;;;;5015194;28;20450;-73
2022/03/06 12:01:47;;;;;;;16.90;11.50;;;13.30;20.50;;;;;;5015209;28;20075;-74
2022/03/06 12:04:18;;;;;;;17.42;11.60;;;13.40;19.90;;;;;;5015436;28;20033;-76
2022/03/06 12:06:47;;;;;;;16.75;11.13;;;13.50;19.50;;;;;;5014978;28;20037;-74
2022/03/06 12:09:18;;;;;;;15.93;10.48;;;13.70;19.50;;;;;;5014848;28;20038;-74
2022/03/06 12:11:44;;;;;;;13.13;10.27;;;14.00;19.80;;;;;;5015115;28;20018;-76
2022/03/06 12:14:18;;;;;;;16.17;10.27;;;14.30;18.50;;;;;;5014942;28;20026;-76
2022/03/06 12:17:03;;;;;;;15.18;10.07;;;14.30;18.00;;;;;;4997447;28;20112;-74
2022/03/06 12:19:45;;;;;;;14.02;10.10;;;14.70;18.30;;;;;;5014866;28;20537;-74
2022/03/06 12:22:15;;;;;;;16.13;11.23;;;14.90;17.30;;;;;;5014649;28;20053;-75
2022/03/06 12:24:43;;;;;;;15.20;10.60;;;14.70;17.00;;;;;;4997160;28;20317;-75
2022/03/06 12:27:16;;;;;;;16.10;11.63;;;14.50;17.20;;;;;;5014618;28;20081;-74
2022/03/06 12:29:48;;;;;;;15.13;11.50;;;14.00;17.10;;;;;;5014566;28;20136;-73
2022/03/06 12:32:26;;;;;;;16.35;10.52;;;13.60;17.50;;;;;;5014639;28;20022;-74